Hlavní strana
METAR-TAF:

METAR-TAF

Letiště :

Monticello, Kentucky, Spojené státy americké

zeměpisná šířka: 36-51-19N, zeměpisná délka: 084-51-22W, výška: 294 m

Aktuální stav počasí

Zpráva byla vytvořena před 1 hodinou a 2 minutami, v 05:56 UTC
Severoseverozápadní vítr 8 kt, proměnlivý mezi západoseverozápadním a severoseverovýchodním
Teplota 1°C
Vlhkost vzduchu 47%
Tlak 1024 hPa
Viditelnost: 16.1 km
Zataženo ve výšce 11000 ft

METAR: KEKQ 240556Z AUTO 33008KT 290V030 10SM OVC110 01/M09 A3024 RMK AO2 SLP245 T00061089 10011 21044 56014

Čas: 01:58 (06:58 UTC)


TAF: chybějící

Stav a předpovědi počasí z více než 4 000 letišť (zprávy METAR a TAF).

Červené a žluté tečky na mapě představují dostupné meteorologické stanice.

Když kurzor umístíte na tečku, zobrazí se název stanice.

Pak kliknutím zobrazíte stav a předpověď počasí.

Chcete-li změnit mapu, kliknutím na zelené tlačítko se znaménkem +mapu přiblížíte, kliknutím na zelené tlačítko se znaménkem – mapu oddálíte a kliknutím na zelené šipky přejdete na sousední mapy.


METAR-TAF: